Time;durP1;ratioP1;P1;durP2;ratioP2;P2;SDS_P1;SDS_P2;PMS_P1;PMS_P2;Temp;Humidity;BMP_temperature;BMP_pressure;BME280_temperature;BME280_humidity;BME280_pressure;Samples;Min_cycle;Max_cycle;Signal;HPM_P1;HPM_P2
2022/02/16 00:01:47;;;;;;;0.20;0.20;;;8.20;99.90;;;;;;5068765;28;20223;-83
2022/02/16 00:04:13;;;;;;;0.10;0.10;;;8.20;99.90;;;;;;5060449;28;20699;-84
2022/02/16 00:06:38;;;;;;;1.13;0.60;;;8.20;99.90;;;;;;5055966;28;20204;-84
2022/02/16 00:09:04;;;;;;;4.90;0.30;;;8.20;99.90;;;;;;5071277;28;20182;-84
2022/02/16 00:11:30;;;;;;;0.10;0.10;;;8.20;99.90;;;;;;5069383;28;20549;-83
2022/02/16 00:13:55;;;;;;;0.10;0.10;;;8.20;99.90;;;;;;5073379;28;20619;-84
2022/02/16 00:16:21;;;;;;;0.13;0.13;;;8.20;99.90;;;;;;5063427;28;20313;-83
2022/02/16 00:18:47;;;;;;;0.10;0.10;;;8.20;99.90;;;;;;5063718;28;20197;-84
2022/02/16 00:21:13;;;;;;;0.37;0.37;;;8.10;99.90;;;;;;5063540;28;20186;-83
2022/02/16 00:23:39;;;;;;;0.30;0.30;;;8.10;99.90;;;;;;5063571;28;20313;-83
2022/02/16 00:26:04;;;;;;;0.10;0.10;;;8.10;99.90;;;;;;5061578;28;20263;-84
2022/02/16 00:28:31;;;;;;;0.00;0.00;;;8.10;99.90;;;;;;5061478;28;20179;-84
2022/02/16 00:30:56;;;;;;;0.10;0.10;;;8.10;99.90;;;;;;5063269;28;20657;-84
2022/02/16 00:33:22;;;;;;;0.00;0.00;;;8.10;99.90;;;;;;5065066;28;20185;-83
2022/02/16 00:35:47;;;;;;;3.20;0.50;;;8.10;99.90;;;;;;5067961;28;20239;-84
2022/02/16 00:38:13;;;;;;;0.77;0.77;;;8.10;99.90;;;;;;5060119;28;20190;-84
2022/02/16 00:40:39;;;;;;;0.47;0.40;;;8.10;99.90;;;;;;5066744;28;20211;-84
2022/02/16 00:43:05;;;;;;;0.20;0.20;;;8.10;99.90;;;;;;5065467;28;20204;-84
2022/02/16 00:45:32;;;;;;;0.10;0.10;;;8.10;99.90;;;;;;5063699;28;20264;-84
2022/02/16 00:47:59;;;;;;;1.00;0.77;;;8.10;99.90;;;;;;5063152;28;20648;-83
2022/02/16 00:50:24;;;;;;;0.10;0.10;;;8.10;99.90;;;;;;5063300;28;20195;-84
2022/02/16 00:52:50;;;;;;;0.10;0.10;;;8.10;99.90;;;;;;5063067;28;20188;-83
2022/02/16 00:55:15;;;;;;;0.10;0.10;;;8.10;99.90;;;;;;5063047;28;20267;-84
2022/02/16 00:57:41;;;;;;;0.10;0.10;;;8.10;99.90;;;;;;5063008;28;20189;-83
2022/02/16 01:00:07;;;;;;;0.10;0.10;;;8.10;99.90;;;;;;5063106;28;20186;-84
2022/02/16 01:02:33;;;;;;;0.10;0.10;;;8.10;99.90;;;;;;5061899;28;20661;-84
2022/02/16 01:04:59;;;;;;;0.10;0.10;;;8.00;99.90;;;;;;5056392;28;20693;-84
2022/02/16 01:07:25;;;;;;;0.10;0.10;;;8.10;99.90;;;;;;5062695;28;20184;-83
2022/02/16 01:09:50;;;;;;;0.17;0.17;;;8.10;99.90;;;;;;5069091;28;20279;-84
2022/02/16 01:12:16;;;;;;;0.10;0.10;;;8.10;99.90;;;;;;5062217;28;20182;-83
2022/02/16 01:14:42;;;;;;;0.07;0.07;;;8.10;99.90;;;;;;5067759;28;20293;-84
2022/02/16 01:17:07;;;;;;;1.43;0.40;;;8.10;99.90;;;;;;5059194;28;20207;-83
2022/02/16 01:19:33;;;;;;;0.57;0.20;;;8.10;99.90;;;;;;5059465;28;20184;-84
2022/02/16 01:21:58;;;;;;;0.03;0.03;;;8.10;99.90;;;;;;5062293;28;20558;-83
2022/02/16 01:24:24;;;;;;;0.10;0.10;;;8.10;99.90;;;;;;5064094;28;20184;-84
2022/02/16 01:26:49;;;;;;;0.10;0.10;;;8.00;99.90;;;;;;5056627;28;20213;-84
2022/02/16 01:29:16;;;;;;;0.10;0.10;;;8.00;99.90;;;;;;5062825;28;20187;-83
2022/02/16 01:31:42;;;;;;;0.17;0.10;;;8.00;99.90;;;;;;5062623;28;20194;-83
2022/02/16 01:34:08;;;;;;;0.10;0.10;;;8.00;99.90;;;;;;5062797;28;20190;-84
2022/02/16 01:36:34;;;;;;;1.33;0.63;;;8.10;99.90;;;;;;5062411;28;20208;-84
2022/02/16 01:38:59;;;;;;;2.67;0.43;;;8.00;99.90;;;;;;5062693;28;20188;-83
2022/02/16 01:41:25;;;;;;;0.10;0.10;;;8.00;99.90;;;;;;5063941;28;20266;-84
2022/02/16 01:43:53;;;;;;;0.00;0.00;;;8.10;99.90;;;;;;5061371;28;20208;-83
2022/02/16 01:46:19;;;;;;;0.93;0.50;;;8.10;99.90;;;;;;5065738;28;20435;-83
2022/02/16 01:48:45;;;;;;;1.40;1.30;;;8.10;99.90;;;;;;5067452;28;20301;-83
2022/02/16 01:51:11;;;;;;;0.10;0.10;;;8.10;99.90;;;;;;5060875;28;20180;-83
2022/02/16 01:53:37;;;;;;;0.23;0.23;;;8.10;99.90;;;;;;5068615;28;20206;-84
2022/02/16 01:56:04;;;;;;;0.10;0.10;;;8.10;99.90;;;;;;5060500;28;20210;-83
2022/02/16 01:58:34;;;;;;;0.10;0.10;;;8.10;99.90;;;;;;5070802;28;20187;-84
2022/02/16 02:01:01;;;;;;;0.50;0.30;;;8.00;99.90;;;;;;5069093;28;20203;-83
2022/02/16 02:03:27;;;;;;;0.10;0.10;;;8.00;99.90;;;;;;5065825;28;20215;-84
2022/02/16 02:05:53;;;;;;;0.10;0.10;;;8.00;99.90;;;;;;5071377;28;20212;-84
2022/02/16 02:08:22;;;;;;;0.10;0.10;;;8.00;99.90;;;;;;5057707;28;20179;-84
2022/02/16 02:10:48;;;;;;;2.97;0.40;;;8.00;99.90;;;;;;5067063;28;20249;-84
2022/02/16 02:13:16;;;;;;;0.10;0.10;;;8.00;99.90;;;;;;5074158;28;20178;-84
2022/02/16 02:15:42;;;;;;;0.13;0.13;;;8.00;99.90;;;;;;5065743;28;20236;-83
2022/02/16 02:18:07;;;;;;;0.43;0.20;;;8.00;99.90;;;;;;5061915;28;20183;-84
2022/02/16 02:20:33;;;;;;;0.10;0.10;;;8.00;99.90;;;;;;5066135;28;20218;-83
2022/02/16 02:22:59;;;;;;;0.03;0.03;;;8.00;99.90;;;;;;5054533;28;20291;-83
2022/02/16 02:25:25;;;;;;;0.20;0.20;;;8.00;99.90;;;;;;5062091;28;20669;-84
2022/02/16 02:27:51;;;;;;;0.10;0.10;;;7.90;99.90;;;;;;5066441;28;20179;-82
2022/02/16 02:30:17;;;;;;;0.10;0.10;;;8.00;99.90;;;;;;5062611;28;20595;-82
2022/02/16 02:32:48;;;;;;;0.10;0.10;;;8.00;99.90;;;;;;5071910;28;20190;-84
2022/02/16 02:35:14;;;;;;;0.10;0.10;;;8.00;99.90;;;;;;5069966;28;20181;-83
2022/02/16 02:37:41;;;;;;;0.10;0.10;;;8.00;99.90;;;;;;5059417;28;20190;-84
2022/02/16 02:40:08;;;;;;;0.10;0.10;;;8.00;99.90;;;;;;5067374;28;20271;-83
2022/02/16 02:42:38;;;;;;;0.30;0.30;;;8.00;99.90;;;;;;5067685;28;20742;-83
2022/02/16 02:45:05;;;;;;;0.20;0.20;;;7.90;99.90;;;;;;5059371;28;20208;-83
2022/02/16 02:47:31;;;;;;;0.10;0.10;;;7.90;99.90;;;;;;5067617;28;20238;-83
2022/02/16 02:49:57;;;;;;;0.10;0.10;;;7.90;99.90;;;;;;5065732;28;20643;-83
2022/02/16 02:52:22;;;;;;;0.10;0.10;;;7.90;99.90;;;;;;5072144;28;20266;-83
2022/02/16 02:54:48;;;;;;;0.20;0.20;;;8.00;99.90;;;;;;5065959;28;20178;-83
2022/02/16 02:57:13;;;;;;;0.07;0.07;;;8.00;99.90;;;;;;5064770;28;20254;-83
2022/02/16 02:59:39;;;;;;;0.10;0.10;;;8.00;99.90;;;;;;5065811;28;20181;-83
2022/02/16 03:02:04;;;;;;;0.10;0.10;;;8.00;99.90;;;;;;5069135;28;20199;-83
2022/02/16 03:04:30;;;;;;;0.00;0.00;;;8.00;99.90;;;;;;5062164;28;20183;-83
2022/02/16 03:06:55;;;;;;;0.23;0.10;;;8.00;99.90;;;;;;5064455;28;20200;-84
2022/02/16 03:09:21;;;;;;;0.20;0.20;;;8.00;99.90;;;;;;5065217;28;20555;-84
2022/02/16 03:11:47;;;;;;;0.20;0.20;;;8.00;99.90;;;;;;5068784;28;20179;-84
2022/02/16 03:14:12;;;;;;;0.30;0.30;;;8.10;99.90;;;;;;5068545;28;20188;-83
2022/02/16 03:16:38;;;;;;;0.87;0.40;;;8.10;99.90;;;;;;5064387;28;20208;-84
2022/02/16 03:19:05;;;;;;;1.40;0.73;;;8.10;99.90;;;;;;5065967;28;20183;-85
2022/02/16 03:21:30;;;;;;;0.10;0.10;;;8.00;99.90;;;;;;5065216;28;20188;-83
2022/02/16 03:23:56;;;;;;;0.30;0.30;;;8.00;99.90;;;;;;5066275;28;20203;-83
2022/02/16 03:26:22;;;;;;;0.20;0.20;;;8.00;99.90;;;;;;5060802;28;20209;-83
2022/02/16 03:28:48;;;;;;;0.10;0.10;;;8.00;99.90;;;;;;5064703;28;20657;-84
2022/02/16 03:31:13;;;;;;;0.10;0.10;;;8.00;99.90;;;;;;5065395;28;20776;-84
2022/02/16 03:33:39;;;;;;;0.00;0.00;;;8.00;99.90;;;;;;5064675;28;20275;-83
2022/02/16 03:36:04;;;;;;;0.27;0.27;;;8.00;99.90;;;;;;5068815;28;20221;-84
2022/02/16 03:38:30;;;;;;;0.10;0.10;;;8.00;99.90;;;;;;5061425;28;20554;-84
2022/02/16 03:40:56;;;;;;;0.10;0.10;;;8.00;99.90;;;;;;5071198;28;20182;-84
2022/02/16 03:43:22;;;;;;;1.20;0.40;;;8.00;99.90;;;;;;5062358;28;20211;-83
2022/02/16 03:45:47;;;;;;;0.10;0.10;;;8.10;99.90;;;;;;5069606;28;20608;-83
2022/02/16 03:48:13;;;;;;;0.10;0.10;;;8.10;99.90;;;;;;5066326;28;20174;-83
2022/02/16 03:50:38;;;;;;;0.33;0.33;;;8.10;99.90;;;;;;5063891;28;20670;-83
2022/02/16 03:53:04;;;;;;;0.10;0.10;;;8.00;99.90;;;;;;5066445;28;20194;-84
2022/02/16 03:55:29;;;;;;;0.10;0.10;;;8.00;99.90;;;;;;5064144;28;20307;-83
2022/02/16 03:57:55;;;;;;;0.00;0.00;;;8.10;99.90;;;;;;5065602;28;20233;-84
2022/02/16 04:00:20;;;;;;;0.10;0.10;;;8.10;99.90;;;;;;5064079;28;20652;-84
2022/02/16 04:02:46;;;;;;;0.10;0.10;;;8.10;99.90;;;;;;5063246;28;20222;-84
2022/02/16 04:05:12;;;;;;;0.10;0.10;;;8.00;99.90;;;;;;5073641;28;20203;-83
2022/02/16 04:07:37;;;;;;;0.17;0.17;;;8.10;99.90;;;;;;5063888;28;20187;-83
2022/02/16 04:10:04;;;;;;;0.10;0.10;;;8.10;99.90;;;;;;5064333;28;20194;-82
2022/02/16 04:12:30;;;;;;;0.10;0.10;;;8.10;99.90;;;;;;5070397;28;20573;-83
2022/02/16 04:14:55;;;;;;;0.37;0.37;;;8.10;99.90;;;;;;5069503;28;20209;-84
2022/02/16 04:17:21;;;;;;;0.03;0.03;;;8.10;99.90;;;;;;5058898;28;20210;-84
2022/02/16 04:19:46;;;;;;;0.30;0.30;;;8.10;99.90;;;;;;5067454;28;20261;-84
2022/02/16 04:22:14;;;;;;;0.10;0.10;;;8.10;99.90;;;;;;5059487;28;20183;-83
2022/02/16 04:24:41;;;;;;;0.20;0.20;;;8.20;99.90;;;;;;5061125;28;20173;-84
2022/02/16 04:27:07;;;;;;;0.00;0.00;;;8.20;99.90;;;;;;5059541;28;20203;-84
2022/02/16 04:29:32;;;;;;;0.10;0.10;;;8.20;99.90;;;;;;5064014;28;20192;-83
2022/02/16 04:31:58;;;;;;;0.10;0.10;;;8.20;99.90;;;;;;5063638;28;20175;-84
2022/02/16 04:34:24;;;;;;;0.00;0.00;;;8.20;99.90;;;;;;5063662;28;20187;-83
2022/02/16 04:36:49;;;;;;;0.10;0.10;;;8.20;99.90;;;;;;5063321;28;20312;-83
2022/02/16 04:39:16;;;;;;;0.10;0.10;;;8.20;99.90;;;;;;5059651;28;20181;-84
2022/02/16 04:41:41;;;;;;;0.10;0.10;;;8.30;99.90;;;;;;5066726;28;20219;-84
2022/02/16 04:44:07;;;;;;;0.30;0.30;;;8.20;99.90;;;;;;5064585;28;20231;-83
2022/02/16 04:46:33;;;;;;;0.10;0.10;;;8.20;99.90;;;;;;5063249;28;20198;-84
2022/02/16 04:48:58;;;;;;;0.47;0.47;;;8.20;99.90;;;;;;5063152;28;20229;-84
2022/02/16 04:51:24;;;;;;;0.10;0.10;;;8.20;99.90;;;;;;5061539;28;20184;-84
2022/02/16 04:53:49;;;;;;;0.10;0.10;;;8.20;99.90;;;;;;5068078;28;20199;-83
2022/02/16 04:56:16;;;;;;;0.40;0.40;;;8.20;99.90;;;;;;5060665;28;20208;-84
2022/02/16 04:58:41;;;;;;;0.10;0.10;;;8.20;99.90;;;;;;5067910;28;20190;-83
2022/02/16 05:01:07;;;;;;;0.00;0.00;;;8.20;99.90;;;;;;5063617;28;20199;-84
2022/02/16 05:03:32;;;;;;;0.40;0.40;;;8.30;99.90;;;;;;5067366;28;20291;-83
2022/02/16 05:05:58;;;;;;;0.00;0.00;;;8.20;99.90;;;;;;5062751;28;20246;-83
2022/02/16 05:08:23;;;;;;;0.10;0.10;;;8.30;99.90;;;;;;5071330;28;20174;-84
2022/02/16 05:10:49;;;;;;;0.27;0.27;;;8.20;99.90;;;;;;5060847;28;20271;-84
2022/02/16 05:13:14;;;;;;;0.10;0.10;;;8.20;99.90;;;;;;5065235;28;20175;-84
2022/02/16 05:15:40;;;;;;;0.00;0.00;;;8.20;99.90;;;;;;5066724;28;20205;-84
2022/02/16 05:18:05;;;;;;;0.10;0.10;;;8.20;99.90;;;;;;5054560;28;20178;-83
2022/02/16 05:20:31;;;;;;;0.10;0.10;;;8.30;99.90;;;;;;5065438;28;20182;-83
2022/02/16 05:22:56;;;;;;;0.00;0.00;;;8.30;99.90;;;;;;5064316;28;20211;-83
2022/02/16 05:25:22;;;;;;;0.10;0.10;;;8.30;99.90;;;;;;5066171;28;20289;-84
2022/02/16 05:27:47;;;;;;;0.10;0.10;;;8.30;99.90;;;;;;5065225;28;20190;-84
2022/02/16 05:30:13;;;;;;;0.50;0.50;;;8.30;99.90;;;;;;5062153;28;20179;-83
2022/02/16 05:32:39;;;;;;;0.20;0.20;;;8.30;99.90;;;;;;5068394;28;20203;-83
2022/02/16 05:35:06;;;;;;;0.00;0.00;;;8.30;99.90;;;;;;5069168;28;20180;-83
2022/02/16 05:37:32;;;;;;;0.40;0.40;;;8.30;99.90;;;;;;5068002;28;20648;-84
2022/02/16 05:39:57;;;;;;;0.23;0.23;;;8.30;99.90;;;;;;5067612;28;20188;-83
2022/02/16 05:42:23;;;;;;;0.10;0.10;;;8.30;99.90;;;;;;5066047;28;20193;-83
2022/02/16 05:44:48;;;;;;;0.10;0.10;;;8.30;99.90;;;;;;5079246;28;20257;-84
2022/02/16 05:47:14;;;;;;;0.20;0.20;;;8.30;99.90;;;;;;5078512;28;20196;-84
2022/02/16 05:49:39;;;;;;;0.10;0.10;;;8.30;99.90;;;;;;5077729;28;20516;-84
2022/02/16 05:52:05;;;;;;;0.10;0.10;;;8.20;99.90;;;;;;5076345;28;20207;-83
2022/02/16 05:54:31;;;;;;;0.00;0.00;;;8.20;99.90;;;;;;5068942;28;20211;-83
2022/02/16 05:56:56;;;;;;;0.10;0.10;;;8.20;99.90;;;;;;5079960;28;20223;-84
2022/02/16 05:59:22;;;;;;;0.10;0.10;;;8.10;99.90;;;;;;5066918;28;20183;-83
2022/02/16 06:01:47;;;;;;;0.10;0.10;;;8.20;99.90;;;;;;5074705;28;20251;-83
2022/02/16 06:04:16;;;;;;;0.10;0.10;;;8.20;99.90;;;;;;5068654;28;20285;-83
2022/02/16 06:06:42;;;;;;;0.10;0.10;;;8.10;99.90;;;;;;5068540;28;20712;-82
2022/02/16 06:09:08;;;;;;;0.10;0.10;;;8.10;99.90;;;;;;5071554;28;20731;-83
2022/02/16 06:11:34;;;;;;;0.10;0.10;;;8.10;99.90;;;;;;5066713;28;20183;-84
2022/02/16 06:13:59;;;;;;;0.20;0.20;;;8.10;99.90;;;;;;5070328;28;20327;-83
2022/02/16 06:16:26;;;;;;;0.10;0.10;;;8.10;99.90;;;;;;5070543;28;20934;-83
2022/02/16 06:18:51;;;;;;;0.10;0.10;;;8.10;99.90;;;;;;5064557;28;20178;-83
2022/02/16 06:21:17;;;;;;;0.10;0.10;;;8.10;99.90;;;;;;5070184;28;20798;-83
2022/02/16 06:23:42;;;;;;;0.20;0.20;;;8.10;99.90;;;;;;5066117;28;20237;-83
2022/02/16 06:26:08;;;;;;;0.10;0.10;;;8.10;99.90;;;;;;5062235;28;20189;-83
2022/02/16 06:28:34;;;;;;;0.10;0.10;;;8.10;99.90;;;;;;5066162;28;20178;-83
2022/02/16 06:31:01;;;;;;;0.10;0.10;;;8.10;99.90;;;;;;5070533;28;20176;-83
2022/02/16 06:33:28;;;;;;;0.10;0.10;;;8.10;99.90;;;;;;5070188;28;20221;-83
2022/02/16 06:35:53;;;;;;;0.10;0.10;;;8.10;99.90;;;;;;5074210;28;20200;-83
2022/02/16 06:38:19;;;;;;;0.27;0.27;;;8.10;99.90;;;;;;5065489;28;20608;-83
2022/02/16 06:40:44;;;;;;;0.23;0.20;;;8.10;99.90;;;;;;5071079;28;20197;-83
2022/02/16 06:43:10;;;;;;;0.50;0.50;;;8.10;99.90;;;;;;5066369;28;20206;-82
2022/02/16 06:45:35;;;;;;;0.10;0.10;;;8.10;99.90;;;;;;5073411;28;20239;-84
2022/02/16 06:48:01;;;;;;;0.10;0.10;;;8.10;99.90;;;;;;5074136;28;20176;-82
2022/02/16 06:50:26;;;;;;;0.10;0.10;;;8.10;99.90;;;;;;5068893;28;20178;-83
2022/02/16 06:52:52;;;;;;;0.10;0.10;;;8.10;99.90;;;;;;5067810;28;20552;-83
2022/02/16 06:55:17;;;;;;;0.10;0.10;;;8.10;99.90;;;;;;5066944;28;20212;-83
2022/02/16 06:57:43;;;;;;;0.23;0.23;;;8.10;99.90;;;;;;5068469;28;20185;-83
2022/02/16 07:00:09;;;;;;;0.00;0.00;;;8.10;99.90;;;;;;5065995;28;20183;-83
2022/02/16 07:02:45;;;;;;;0.10;0.10;;;8.10;99.90;;;;;;5064505;28;20208;-83
2022/02/16 07:05:11;;;;;;;0.10;0.10;;;8.10;99.90;;;;;;5065740;28;20207;-83
2022/02/16 07:07:37;;;;;;;0.20;0.20;;;8.10;99.90;;;;;;5065803;28;20236;-83
2022/02/16 07:10:03;;;;;;;0.00;0.00;;;8.00;99.90;;;;;;5070815;28;20185;-83
2022/02/16 07:12:30;;;;;;;0.10;0.10;;;8.10;99.90;;;;;;5064190;28;20205;-83
2022/02/16 07:14:56;;;;;;;0.10;0.10;;;8.00;99.90;;;;;;5070534;28;20188;-83
2022/02/16 07:17:22;;;;;;;0.20;0.20;;;8.00;99.90;;;;;;5061540;28;20227;-83
2022/02/16 07:19:48;;;;;;;0.20;0.20;;;8.10;99.90;;;;;;5070895;28;20191;-84
2022/02/16 07:22:13;;;;;;;0.17;0.13;;;8.10;99.90;;;;;;5069708;28;20688;-83
2022/02/16 07:24:39;;;;;;;0.10;0.10;;;8.10;99.90;;;;;;5065188;28;20172;-83
2022/02/16 07:27:04;;;;;;;0.00;0.00;;;8.10;99.90;;;;;;5060496;28;20198;-83
2022/02/16 07:29:30;;;;;;;0.37;0.17;;;8.10;99.90;;;;;;5067435;28;20188;-83
2022/02/16 07:31:55;;;;;;;0.10;0.10;;;8.10;99.90;;;;;;5066717;28;20706;-83
2022/02/16 07:34:24;;;;;;;0.10;0.10;;;8.10;99.90;;;;;;5066575;28;20187;-83
2022/02/16 07:36:50;;;;;;;0.03;0.03;;;8.20;99.90;;;;;;5067310;28;20609;-83
2022/02/16 07:39:15;;;;;;;0.20;0.20;;;8.10;99.90;;;;;;5068071;28;20645;-83
2022/02/16 07:41:41;;;;;;;0.00;0.00;;;8.10;99.90;;;;;;5066282;28;20263;-83
2022/02/16 07:44:06;;;;;;;0.20;0.20;;;8.10;99.90;;;;;;5065983;28;20667;-84
2022/02/16 07:46:32;;;;;;;0.20;0.20;;;8.10;99.90;;;;;;5066191;28;20223;-83
2022/02/16 07:48:57;;;;;;;0.10;0.10;;;8.10;99.90;;;;;;5062574;28;20186;-83
2022/02/16 07:51:23;;;;;;;0.17;0.17;;;8.10;99.90;;;;;;5062490;28;20185;-83
2022/02/16 07:53:49;;;;;;;0.10;0.10;;;8.10;99.90;;;;;;5063998;28;20183;-83
2022/02/16 07:56:15;;;;;;;0.00;0.00;;;8.10;99.90;;;;;;5062309;28;20231;-84
2022/02/16 07:58:41;;;;;;;0.00;0.00;;;8.20;99.90;;;;;;5072240;28;20188;-83
2022/02/16 08:01:06;;;;;;;0.20;0.20;;;8.20;99.90;;;;;;5066550;28;20280;-83
2022/02/16 08:03:32;;;;;;;0.10;0.10;;;8.10;99.90;;;;;;5065981;28;20199;-83
2022/02/16 08:06:03;;;;;;;0.10;0.10;;;8.10;99.90;;;;;;5055993;28;20203;-83
2022/02/16 08:08:29;;;;;;;0.10;0.10;;;8.20;99.90;;;;;;5069896;28;20719;-83
2022/02/16 08:10:55;;;;;;;0.10;0.10;;;8.20;99.90;;;;;;5065282;28;20554;-83
2022/02/16 08:13:21;;;;;;;0.10;0.10;;;8.20;99.90;;;;;;5066287;28;20245;-83
2022/02/16 08:15:46;;;;;;;0.00;0.00;;;8.20;99.90;;;;;;5064449;28;20305;-83
2022/02/16 08:18:14;;;;;;;0.10;0.10;;;8.20;99.90;;;;;;5066876;28;20180;-83
2022/02/16 08:20:44;;;;;;;0.10;0.10;;;8.30;99.90;;;;;;5065470;28;20178;-83
2022/02/16 08:23:10;;;;;;;0.10;0.10;;;8.30;99.90;;;;;;5068100;28;20677;-83
2022/02/16 08:25:37;;;;;;;0.10;0.10;;;8.30;99.90;;;;;;5061691;28;20219;-83
2022/02/16 08:28:02;;;;;;;0.20;0.20;;;8.30;99.90;;;;;;5064589;28;20311;-83
2022/02/16 08:30:28;;;;;;;0.13;0.13;;;8.30;99.90;;;;;;5061210;28;20648;-84
2022/02/16 08:32:54;;;;;;;0.10;0.10;;;8.30;99.90;;;;;;5069148;28;20638;-84
2022/02/16 08:35:20;;;;;;;0.63;0.63;;;8.30;99.90;;;;;;5067538;28;20175;-84
2022/02/16 08:37:46;;;;;;;0.10;0.10;;;8.30;99.90;;;;;;5063298;28;20187;-84
2022/02/16 08:40:12;;;;;;;0.27;0.20;;;8.40;99.90;;;;;;5065479;28;20345;-83
2022/02/16 08:42:39;;;;;;;0.10;0.10;;;8.40;99.90;;;;;;5063456;28;20203;-84
2022/02/16 08:45:05;;;;;;;0.10;0.10;;;8.40;99.90;;;;;;5064917;28;20226;-83
2022/02/16 08:47:30;;;;;;;0.10;0.10;;;8.40;99.90;;;;;;5064032;28;20177;-83
2022/02/16 08:49:56;;;;;;;0.20;0.20;;;8.50;99.90;;;;;;5064078;28;20175;-82
2022/02/16 08:52:21;;;;;;;0.07;0.07;;;8.50;99.90;;;;;;5063761;28;20181;-83
2022/02/16 08:54:47;;;;;;;0.60;0.60;;;8.50;99.90;;;;;;5061209;28;20183;-83
2022/02/16 08:57:12;;;;;;;0.10;0.10;;;8.50;99.90;;;;;;5064365;28;20192;-84
2022/02/16 08:59:38;;;;;;;0.10;0.10;;;8.60;99.90;;;;;;5059746;28;20215;-83
2022/02/16 09:02:04;;;;;;;0.10;0.10;;;8.60;99.90;;;;;;5059049;28;20280;-83
2022/02/16 09:04:30;;;;;;;0.10;0.10;;;8.60;99.90;;;;;;5060157;28;20707;-83
2022/02/16 09:09:54;;;;;;;0.10;0.10;;;8.60;99.90;;;;;;5075906;28;20185;-84
2022/02/16 09:12:19;;;;;;;0.10;0.10;;;8.70;99.90;;;;;;5063905;28;20234;-84
2022/02/16 09:14:45;;;;;;;0.10;0.10;;;8.70;99.90;;;;;;5069594;28;20649;-83
2022/02/16 09:17:10;;;;;;;0.10;0.10;;;8.70;99.90;;;;;;5059570;28;20192;-84
2022/02/16 09:19:37;;;;;;;0.10;0.10;;;8.70;99.90;;;;;;5068198;28;20271;-83
2022/02/16 09:22:03;;;;;;;0.20;0.20;;;8.70;99.90;;;;;;5063818;28;20172;-83
2022/02/16 09:24:29;;;;;;;0.10;0.10;;;8.70;99.90;;;;;;5067528;28;20232;-83
2022/02/16 09:26:54;;;;;;;0.10;0.10;;;8.80;99.90;;;;;;5058951;28;20200;-83
2022/02/16 09:29:21;;;;;;;0.10;0.10;;;8.80;99.90;;;;;;5064698;28;20181;-83
2022/02/16 09:31:49;;;;;;;0.10;0.10;;;8.90;99.90;;;;;;5064011;28;20649;-83
2022/02/16 09:34:15;;;;;;;0.10;0.10;;;8.90;99.90;;;;;;5063030;28;20180;-84
2022/02/16 09:36:40;;;;;;;0.10;0.10;;;8.90;99.90;;;;;;5062548;28;20208;-83
2022/02/16 09:39:06;;;;;;;0.10;0.10;;;8.90;99.90;;;;;;5063312;28;20189;-84
2022/02/16 09:41:32;;;;;;;0.00;0.00;;;8.90;99.90;;;;;;5064319;28;20227;-84
2022/02/16 09:43:58;;;;;;;0.07;0.07;;;8.90;99.90;;;;;;5055581;28;20748;-83
2022/02/16 09:46:25;;;;;;;0.10;0.10;;;9.00;99.90;;;;;;5064041;28;20203;-84
2022/02/16 09:48:51;;;;;;;0.10;0.10;;;9.00;99.90;;;;;;5066862;28;20639;-83
2022/02/16 09:51:17;;;;;;;0.10;0.10;;;9.00;99.90;;;;;;5060726;28;20176;-84
2022/02/16 09:53:43;;;;;;;0.10;0.10;;;9.00;99.90;;;;;;5065691;28;20278;-83
2022/02/16 09:56:09;;;;;;;0.00;0.00;;;9.10;99.90;;;;;;5076118;28;20204;-83
2022/02/16 09:58:34;;;;;;;0.10;0.10;;;9.00;99.90;;;;;;5066940;28;20201;-84
2022/02/16 10:01:12;;;;;;;0.10;0.10;;;9.10;99.90;;;;;;5072125;28;20193;-83
2022/02/16 10:03:38;;;;;;;0.07;0.07;;;9.10;99.90;;;;;;5067871;28;20703;-83
2022/02/16 10:06:04;;;;;;;0.10;0.10;;;9.20;99.90;;;;;;5063111;28;20263;-83
2022/02/16 10:08:45;;;;;;;0.10;0.10;;;9.20;99.90;;;;;;5066476;28;20310;-83
2022/02/16 10:11:12;;;;;;;0.10;0.10;;;9.20;99.90;;;;;;5066118;28;20248;-83
2022/02/16 10:13:39;;;;;;;0.10;0.10;;;9.30;99.90;;;;;;5065918;28;20866;-83
2022/02/16 10:16:04;;;;;;;0.10;0.10;;;9.20;99.90;;;;;;5065565;28;20291;-83
2022/02/16 10:18:31;;;;;;;0.73;0.30;;;9.30;99.90;;;;;;5071251;28;20803;-83
2022/02/16 10:21:07;;;;;;;0.10;0.10;;;9.30;99.90;;;;;;5071227;28;20180;-83
2022/02/16 10:23:42;;;;;;;0.10;0.10;;;9.30;99.90;;;;;;5069187;28;20685;-83
2022/02/16 10:26:07;;;;;;;0.30;0.30;;;9.40;99.90;;;;;;5060652;28;20279;-83
2022/02/16 10:28:39;;;;;;;0.13;0.13;;;9.40;99.90;;;;;;5067017;28;20266;-83
2022/02/16 10:31:07;;;;;;;0.10;0.10;;;9.40;99.90;;;;;;5062489;28;20168;-83
2022/02/16 10:33:47;;;;;;;0.10;0.10;;;9.50;99.90;;;;;;5069412;28;20187;-83
2022/02/16 10:36:22;;;;;;;0.00;0.00;;;9.50;99.90;;;;;;5061347;28;20201;-83
2022/02/16 10:38:55;;;;;;;0.20;0.20;;;9.50;99.90;;;;;;5066758;28;20265;-83
2022/02/16 10:41:24;;;;;;;0.10;0.10;;;9.60;99.90;;;;;;5071945;28;20704;-84
2022/02/16 10:43:51;;;;;;;0.20;0.20;;;9.60;99.90;;;;;;5066935;28;20675;-83
2022/02/16 10:46:30;;;;;;;0.10;0.10;;;9.70;99.90;;;;;;5065280;28;20568;-83
2022/02/16 10:49:18;;;;;;;0.00;0.00;;;9.70;99.90;;;;;;5072839;28;20179;-83
2022/02/16 10:51:45;;;;;;;0.10;0.10;;;9.80;99.90;;;;;;5064044;28;20173;-83
2022/02/16 10:54:17;;;;;;;0.10;0.10;;;9.80;99.90;;;;;;5070671;28;20526;-83
2022/02/16 10:56:46;;;;;;;0.03;0.03;;;9.80;99.90;;;;;;5062376;28;20209;-83
2022/02/16 10:59:12;;;;;;;0.10;0.10;;;9.80;99.90;;;;;;5071591;28;20538;-83
2022/02/16 11:01:39;;;;;;;0.20;0.20;;;9.80;99.90;;;;;;5065385;28;20195;-83
2022/02/16 11:04:07;;;;;;;0.10;0.10;;;9.90;99.90;;;;;;5067125;28;20704;-83
2022/02/16 11:06:37;;;;;;;0.10;0.10;;;9.90;99.90;;;;;;5051955;28;20682;-83
2022/02/16 11:09:03;;;;;;;0.10;0.10;;;10.00;99.90;;;;;;5063705;28;20171;-83
2022/02/16 11:11:30;;;;;;;0.10;0.10;;;10.00;99.90;;;;;;5068711;28;20260;-83
2022/02/16 11:13:57;;;;;;;0.10;0.10;;;10.00;99.90;;;;;;5066987;28;20223;-83
2022/02/16 11:16:23;;;;;;;0.10;0.10;;;10.00;99.90;;;;;;5066190;28;20207;-84
2022/02/16 11:18:50;;;;;;;0.10;0.10;;;10.00;99.90;;;;;;5066583;28;20651;-84
2022/02/16 11:21:19;;;;;;;0.30;0.30;;;10.10;99.90;;;;;;5065801;28;20312;-83
2022/02/16 11:23:45;;;;;;;0.20;0.20;;;10.10;99.90;;;;;;5066312;28;20201;-83
2022/02/16 11:26:29;;;;;;;0.10;0.10;;;10.10;99.90;;;;;;5063742;28;20192;-83
2022/02/16 11:28:56;;;;;;;0.10;0.10;;;10.20;99.90;;;;;;5066218;28;20714;-83
2022/02/16 11:31:41;;;;;;;0.10;0.10;;;10.20;99.90;;;;;;5065785;28;20183;-83
2022/02/16 11:34:15;;;;;;;0.30;0.30;;;10.40;99.90;;;;;;5060234;28;20183;-83
2022/02/16 11:37:02;;;;;;;0.00;0.00;;;10.50;99.90;;;;;;5062076;28;20207;-83
2022/02/16 11:39:50;;;;;;;0.00;0.00;;;10.50;99.90;;;;;;5066009;28;20602;-83
2022/02/16 11:42:22;;;;;;;0.20;0.20;;;10.50;99.90;;;;;;5054251;28;20266;-83
2022/02/16 11:44:50;;;;;;;0.10;0.10;;;10.60;99.90;;;;;;5065076;28;20188;-83
2022/02/16 11:47:42;;;;;;;0.10;0.10;;;10.60;99.90;;;;;;5065745;28;20541;-84
2022/02/16 11:50:14;;;;;;;0.47;0.10;;;10.70;99.90;;;;;;5063056;28;20239;-83
2022/02/16 11:52:49;;;;;;;0.10;0.10;;;10.80;99.90;;;;;;5065909;28;20185;-84
2022/02/16 11:55:36;;;;;;;0.10;0.10;;;10.90;99.90;;;;;;5067026;28;20542;-84
2022/02/16 11:58:01;;;;;;;0.17;0.17;;;10.90;99.90;;;;;;5074035;28;20181;-83
2022/02/16 12:00:29;;;;;;;0.10;0.10;;;10.90;99.90;;;;;;5065483;28;20265;-83
2022/02/16 12:03:06;;;;;;;1.33;0.20;;;10.80;99.90;;;;;;5068602;28;20214;-83
2022/02/16 12:06:07;;;;;;;0.10;0.10;;;10.90;99.90;;;;;;5069405;28;20614;-83
2022/02/16 12:08:47;;;;;;;0.10;0.10;;;10.90;99.90;;;;;;5070430;28;20236;-83
2022/02/16 12:11:17;;;;;;;0.00;0.00;;;10.90;99.90;;;;;;5058697;28;20173;-83
2022/02/16 12:13:51;;;;;;;0.10;0.10;;;11.00;99.90;;;;;;5064093;28;20638;-83
2022/02/16 12:16:45;;;;;;;0.17;0.17;;;10.90;99.90;;;;;;5062050;28;20200;-83
2022/02/16 12:19:15;;;;;;;0.10;0.10;;;10.90;99.90;;;;;;5059766;28;20213;-84
2022/02/16 12:21:49;;;;;;;0.20;0.20;;;10.80;99.90;;;;;;5063846;28;20192;-84
2022/02/16 12:24:19;;;;;;;0.20;0.20;;;10.90;99.90;;;;;;5067009;28;20207;-83
2022/02/16 12:26:48;;;;;;;0.10;0.10;;;10.90;99.90;;;;;;5059442;28;20352;-83
2022/02/16 12:29:17;;;;;;;0.10;0.10;;;10.90;99.90;;;;;;5064286;28;20282;-83
2022/02/16 12:31:52;;;;;;;0.20;0.20;;;10.90;99.90;;;;;;5056108;28;20308;-84
2022/02/16 12:34:21;;;;;;;0.10;0.10;;;10.90;99.90;;;;;;5064366;28;20209;-84
2022/02/16 12:36:48;;;;;;;0.10;0.10;;;11.00;99.90;;;;;;5061667;28;20232;-84
2022/02/16 12:39:14;;;;;;;0.00;0.00;;;11.00;99.90;;;;;;5063979;28;20654;-84
2022/02/16 12:41:41;;;;;;;0.10;0.10;;;11.00;99.90;;;;;;5064412;28;20261;-83
2022/02/16 12:44:11;;;;;;;0.10;0.10;;;10.90;99.90;;;;;;5071208;28;20256;-83
2022/02/16 12:46:48;;;;;;;0.30;0.30;;;11.00;99.90;;;;;;5063994;28;20204;-84
2022/02/16 12:49:20;;;;;;;0.10;0.10;;;11.00;99.90;;;;;;5066888;28;20174;-84
2022/02/16 12:51:47;;;;;;;0.10;0.10;;;11.00;99.90;;;;;;5061878;28;20205;-83
2022/02/16 12:54:18;;;;;;;0.10;0.10;;;11.10;99.90;;;;;;5066656;28;20216;-83
2022/02/16 12:56:52;;;;;;;0.17;0.17;;;11.10;99.90;;;;;;5061486;28;20243;-84
2022/02/16 12:59:21;;;;;;;0.10;0.10;;;11.10;99.90;;;;;;5066312;28;20666;-83